createdAt,value
2022-08-30T00:02:02.882Z,13.85
2022-08-30T00:04:30.245Z,13.77
2022-08-30T00:06:57.821Z,13.76
2022-08-30T00:09:25.134Z,13.73
2022-08-30T00:11:52.537Z,13.70
2022-08-30T00:14:20.456Z,13.66
2022-08-30T00:16:47.773Z,13.58
2022-08-30T00:19:15.145Z,13.52
2022-08-30T00:21:42.460Z,13.53
2022-08-30T00:24:09.839Z,13.50
2022-08-30T00:26:37.132Z,13.48
2022-08-30T00:29:04.719Z,13.47
2022-08-30T00:31:32.188Z,13.37
2022-08-30T00:33:59.585Z,13.27
2022-08-30T00:36:27.726Z,13.24
2022-08-30T00:38:55.081Z,13.20
2022-08-30T00:41:22.904Z,13.17
2022-08-30T00:43:50.326Z,13.15
2022-08-30T00:46:17.783Z,13.15
2022-08-30T00:48:49.625Z,13.18
2022-08-30T00:51:19.794Z,13.07
2022-08-30T00:53:55.396Z,13.07
2022-08-30T00:56:25.345Z,13.12
2022-08-30T00:58:57.001Z,13.10
2022-08-30T01:01:26.081Z,13.04
2022-08-30T01:03:54.412Z,12.99
2022-08-30T01:06:22.021Z,12.95
2022-08-30T01:08:49.888Z,12.92
2022-08-30T01:11:22.230Z,12.96
2022-08-30T01:13:52.084Z,12.92
2022-08-30T01:16:20.836Z,12.90
2022-08-30T01:18:52.281Z,12.91
2022-08-30T01:21:51.021Z,12.91
2022-08-30T01:24:19.961Z,12.85
2022-08-30T01:26:47.217Z,12.84
2022-08-30T01:29:21.610Z,12.77
2022-08-30T01:31:49.471Z,12.73
2022-08-30T01:34:17.319Z,12.73
2022-08-30T01:36:46.332Z,12.68
2022-08-30T01:39:19.362Z,12.65
2022-08-30T01:41:47.051Z,12.70
2022-08-30T01:44:15.390Z,12.73
2022-08-30T01:46:47.313Z,12.73
2022-08-30T01:49:26.932Z,12.67
2022-08-30T01:52:00.582Z,12.59
2022-08-30T01:54:33.716Z,12.58
2022-08-30T01:57:10.017Z,12.63
2022-08-30T01:59:40.028Z,12.62
2022-08-30T02:02:07.761Z,12.59
2022-08-30T02:04:36.815Z,12.53
2022-08-30T02:07:05.400Z,12.48
2022-08-30T02:09:32.897Z,12.47
2022-08-30T02:12:00.229Z,12.49
2022-08-30T02:14:27.775Z,12.55
2022-08-30T02:16:55.196Z,12.46
2022-08-30T02:19:22.643Z,12.46
2022-08-30T02:21:50.648Z,12.38
2022-08-30T02:24:18.055Z,12.34
2022-08-30T02:26:45.437Z,12.28
2022-08-30T02:29:13.081Z,12.31
2022-08-30T02:31:40.736Z,12.32
2022-08-30T02:34:08.165Z,12.30
2022-08-30T02:36:35.450Z,12.28
2022-08-30T02:39:03.498Z,12.31
2022-08-30T02:41:30.816Z,12.33
2022-08-30T02:44:00.355Z,12.32
2022-08-30T02:46:33.132Z,12.31
2022-08-30T02:49:13.186Z,12.26
2022-08-30T02:51:48.755Z,12.18
2022-08-30T02:54:19.985Z,12.15
2022-08-30T02:56:49.024Z,12.14
2022-08-30T02:59:18.115Z,12.17
2022-08-30T03:01:45.740Z,12.19
2022-08-30T03:04:13.184Z,12.17
2022-08-30T03:06:40.465Z,12.16
2022-08-30T03:09:07.853Z,12.17
2022-08-30T03:11:35.332Z,12.15
2022-08-30T03:14:02.689Z,12.16
2022-08-30T03:16:30.221Z,12.06
2022-08-30T03:18:57.705Z,11.99
2022-08-30T03:21:25.160Z,11.99
2022-08-30T03:23:52.456Z,12.01
2022-08-30T03:26:19.849Z,12.00
2022-08-30T03:28:47.441Z,11.97
2022-08-30T03:31:14.756Z,11.97
2022-08-30T03:33:42.076Z,12.01
2022-08-30T03:36:11.117Z,12.06
2022-08-30T03:38:40.338Z,12.14
2022-08-30T03:41:09.567Z,12.13
2022-08-30T03:43:37.679Z,12.09
2022-08-30T03:46:05.888Z,12.06
2022-08-30T03:48:33.304Z,12.07
2022-08-30T03:51:00.652Z,12.06
2022-08-30T03:53:28.031Z,12.04
2022-08-30T03:55:55.747Z,12.05
2022-08-30T03:58:25.104Z,11.95
2022-08-30T04:00:52.573Z,11.98
2022-08-30T04:03:25.792Z,12.00
2022-08-30T04:05:56.581Z,12.02
2022-08-30T04:08:25.127Z,12.10
2022-08-30T04:10:53.635Z,12.19
2022-08-30T04:13:22.185Z,12.35
2022-08-30T04:15:49.722Z,12.45
2022-08-30T04:18:17.724Z,12.66
2022-08-30T04:20:45.123Z,12.85
2022-08-30T04:23:12.558Z,13.10
2022-08-30T04:25:42.145Z,13.28
2022-08-30T04:28:10.623Z,13.52
2022-08-30T04:30:44.362Z,13.80
2022-08-30T04:33:14.444Z,14.11
2022-08-30T04:35:48.386Z,14.28
2022-08-30T04:38:18.235Z,14.41
2022-08-30T04:40:50.302Z,14.48
2022-08-30T04:43:17.800Z,14.57
2022-08-30T04:45:45.352Z,14.37
2022-08-30T04:48:12.679Z,14.34
2022-08-30T04:50:40.450Z,14.58
2022-08-30T04:53:13.900Z,14.93
2022-08-30T04:55:43.485Z,15.12
2022-08-30T04:58:12.208Z,15.36
2022-08-30T05:00:42.214Z,15.35
2022-08-30T05:03:09.723Z,15.59
2022-08-30T05:05:39.912Z,15.64
2022-08-30T05:08:15.955Z,15.63
2022-08-30T05:10:47.306Z,16.29
2022-08-30T05:13:16.754Z,16.90
2022-08-30T05:15:45.258Z,17.52
2022-08-30T05:18:14.516Z,17.64
2022-08-30T05:20:44.104Z,17.79
2022-08-30T05:23:11.565Z,18.38
2022-08-30T05:25:42.420Z,18.75
2022-08-30T05:28:10.259Z,18.43
2022-08-30T05:30:38.436Z,19.08
2022-08-30T05:33:06.056Z,19.63
2022-08-30T05:35:33.523Z,20.22
2022-08-30T05:38:00.967Z,20.74
2022-08-30T05:40:29.254Z,21.61
2022-08-30T05:42:56.740Z,21.99
2022-08-30T05:45:24.102Z,22.08
2022-08-30T05:47:51.449Z,22.50
2022-08-30T05:50:19.036Z,23.08
2022-08-30T05:52:46.446Z,23.02
2022-08-30T05:55:15.084Z,23.56
2022-08-30T05:57:42.628Z,23.51
2022-08-30T06:00:15.427Z,23.97
2022-08-30T06:02:43.356Z,24.51
2022-08-30T06:05:14.247Z,25.05
2022-08-30T06:07:43.557Z,25.24
2022-08-30T06:10:12.631Z,25.16
2022-08-30T06:12:40.550Z,25.50
2022-08-30T06:15:08.738Z,25.48
2022-08-30T06:17:36.558Z,25.40
2022-08-30T06:20:04.614Z,25.12
2022-08-30T06:22:31.799Z,25.30
2022-08-30T06:24:59.054Z,25.73
2022-08-30T06:27:26.485Z,26.11
2022-08-30T06:29:53.942Z,27.17
2022-08-30T06:32:21.488Z,27.28
2022-08-30T06:34:49.610Z,27.81
2022-08-30T06:37:29.707Z,28.59
2022-08-30T06:39:58.933Z,28.76
2022-08-30T06:42:32.344Z,29.22
2022-08-30T06:45:01.847Z,29.78
2022-08-30T06:47:30.430Z,29.93
2022-08-30T06:49:59.109Z,29.49
2022-08-30T06:52:26.472Z,28.79
2022-08-30T06:54:58.358Z,29.65
2022-08-30T06:57:26.462Z,30.38
2022-08-30T06:59:58.554Z,30.79
2022-08-30T07:02:26.531Z,31.02
2022-08-30T07:04:54.305Z,31.58
2022-08-30T07:07:21.727Z,31.84
2022-08-30T07:09:49.281Z,31.30
2022-08-30T07:12:17.453Z,31.73
2022-08-30T07:14:44.821Z,32.60
2022-08-30T07:17:34.538Z,32.80
2022-08-30T07:20:05.056Z,33.41
2022-08-30T07:22:33.953Z,33.29
2022-08-30T07:25:01.913Z,33.97
2022-08-30T07:27:29.691Z,33.70
2022-08-30T07:29:58.865Z,33.01
2022-08-30T07:32:26.561Z,33.46
2022-08-30T07:34:53.839Z,34.41
2022-08-30T07:37:21.210Z,34.25
2022-08-30T07:39:48.436Z,33.49
2022-08-30T07:42:16.585Z,33.45
2022-08-30T07:44:44.787Z,33.60
2022-08-30T07:47:12.328Z,34.42
2022-08-30T07:49:39.742Z,34.49
2022-08-30T07:52:07.058Z,34.65
2022-08-30T07:54:34.615Z,34.97
2022-08-30T07:57:01.956Z,35.06
2022-08-30T07:59:31.819Z,34.40
2022-08-30T08:02:01.752Z,35.08
2022-08-30T08:04:29.120Z,35.92
2022-08-30T08:06:56.639Z,36.28
2022-08-30T08:09:23.998Z,36.07
2022-08-30T08:11:51.338Z,37.18
2022-08-30T08:14:19.033Z,37.56
2022-08-30T08:16:46.757Z,37.01
2022-08-30T08:19:14.223Z,36.98
2022-08-30T08:21:41.635Z,35.77
2022-08-30T08:24:09.420Z,31.71
2022-08-30T08:26:41.029Z,30.42
2022-08-30T08:29:12.753Z,32.65
2022-08-30T08:31:41.695Z,36.22
2022-08-30T08:34:09.263Z,37.04
2022-08-30T08:36:36.846Z,35.10
2022-08-30T08:39:07.772Z,33.19
2022-08-30T08:42:33.743Z,33.65
2022-08-30T08:45:14.744Z,34.81
2022-08-30T08:47:53.927Z,34.91
2022-08-30T08:50:24.217Z,36.75
2022-08-30T08:53:36.160Z,36.43
2022-08-30T08:56:12.670Z,33.92
2022-08-30T08:58:51.505Z,34.17
2022-08-30T09:01:24.001Z,35.35
2022-08-30T09:03:52.118Z,36.20
2022-08-30T09:06:49.926Z,34.10
2022-08-30T09:09:28.558Z,35.04
2022-08-30T09:11:56.014Z,36.94
2022-08-30T09:14:34.850Z,37.93
2022-08-30T09:17:09.955Z,35.42
2022-08-30T09:19:57.119Z,32.67
2022-08-30T09:22:29.231Z,32.54
2022-08-30T09:25:06.896Z,35.53
2022-08-30T09:27:47.162Z,38.19
2022-08-30T09:30:28.573Z,37.99
2022-08-30T09:32:57.112Z,38.56
2022-08-30T09:35:43.867Z,37.66
2022-08-30T09:38:35.999Z,38.42
2022-08-30T09:41:44.448Z,38.29
2022-08-30T09:44:24.524Z,35.08
2022-08-30T09:46:58.859Z,36.77
2022-08-30T09:49:38.112Z,38.10
2022-08-30T09:52:19.260Z,39.29
2022-08-30T09:55:14.488Z,36.25
2022-08-30T09:58:25.725Z,31.95
2022-08-30T10:01:20.436Z,29.98
2022-08-30T10:04:31.034Z,28.65
2022-08-30T10:07:29.031Z,27.43
2022-08-30T10:10:30.495Z,26.47
2022-08-30T10:13:33.731Z,25.84
2022-08-30T10:16:06.577Z,28.01
2022-08-30T10:19:16.406Z,32.23
2022-08-30T10:21:58.331Z,35.13
2022-08-30T10:24:44.028Z,35.53
2022-08-30T10:27:25.999Z,37.04
2022-08-30T10:30:15.182Z,36.51
2022-08-30T10:33:06.812Z,35.38
2022-08-30T10:35:53.224Z,31.82
2022-08-30T10:38:41.083Z,29.22
2022-08-30T10:41:28.369Z,27.91
2022-08-30T10:44:07.050Z,26.50
2022-08-30T10:46:48.440Z,25.97
2022-08-30T10:49:23.416Z,25.82
2022-08-30T10:52:13.763Z,27.89
2022-08-30T10:55:09.891Z,31.79
2022-08-30T10:57:38.759Z,33.63
2022-08-30T11:00:23.403Z,35.07
2022-08-30T11:03:20.331Z,36.67
2022-08-30T11:06:22.862Z,36.16
2022-08-30T11:09:04.908Z,36.66
2022-08-30T11:12:13.597Z,33.89
2022-08-30T11:14:46.615Z,33.42
2022-08-30T11:17:37.190Z,33.52
2022-08-30T11:20:21.400Z,33.02
2022-08-30T11:23:19.549Z,33.13
2022-08-30T11:25:57.852Z,31.86
2022-08-30T11:28:37.556Z,32.48
2022-08-30T11:31:23.723Z,30.71
2022-08-30T11:34:01.334Z,28.44
2022-08-30T11:36:46.130Z,27.30
2022-08-30T11:39:43.114Z,26.61
2022-08-30T11:45:25.295Z,25.53
2022-08-30T11:48:10.055Z,26.43
2022-08-30T11:51:07.173Z,28.61
2022-08-30T11:54:01.321Z,29.59
2022-08-30T11:57:03.230Z,29.70
2022-08-30T11:59:49.393Z,29.87
2022-08-30T12:02:47.752Z,29.29
2022-08-30T12:05:38.698Z,29.55
2022-08-30T12:08:37.310Z,30.14
2022-08-30T12:11:27.801Z,29.23
2022-08-30T12:13:56.769Z,28.33
2022-08-30T12:17:01.679Z,27.50
2022-08-30T12:19:32.502Z,26.56
2022-08-30T12:22:08.562Z,25.63
2022-08-30T12:24:44.335Z,24.80
2022-08-30T12:27:32.534Z,24.33
2022-08-30T12:30:08.888Z,23.99
2022-08-30T12:32:50.601Z,24.58
2022-08-30T12:35:25.878Z,25.16
2022-08-30T12:38:01.720Z,25.68
2022-08-30T12:40:31.826Z,26.02
2022-08-30T12:43:02.855Z,26.17
2022-08-30T12:45:39.730Z,26.17
2022-08-30T12:48:11.764Z,25.83
2022-08-30T12:50:57.706Z,25.67
2022-08-30T12:53:33.470Z,25.92
2022-08-30T12:56:09.449Z,25.78
2022-08-30T12:58:52.900Z,25.79
2022-08-30T13:01:32.490Z,25.88
2022-08-30T13:04:19.892Z,26.01
2022-08-30T13:07:02.272Z,25.85
2022-08-30T13:09:42.779Z,25.53
2022-08-30T13:12:24.263Z,25.58
2022-08-30T13:14:53.913Z,25.80
2022-08-30T13:17:24.493Z,25.83
2022-08-30T13:20:27.492Z,25.80
2022-08-30T13:23:10.994Z,25.76
2022-08-30T13:25:40.035Z,25.54
2022-08-30T13:28:08.313Z,25.49
2022-08-30T13:30:36.200Z,25.41
2022-08-30T13:33:03.606Z,25.00
2022-08-30T13:35:32.602Z,25.02
2022-08-30T13:38:02.031Z,24.99
2022-08-30T13:40:29.450Z,24.88
2022-08-30T13:42:58.791Z,25.08
2022-08-30T13:45:42.217Z,25.00
2022-08-30T13:48:11.975Z,25.16
2022-08-30T13:50:39.650Z,25.28
2022-08-30T13:53:09.294Z,25.12
2022-08-30T13:55:38.675Z,24.67
2022-08-30T13:58:06.340Z,24.89
2022-08-30T14:00:36.923Z,25.13
2022-08-30T14:03:05.485Z,25.39
2022-08-30T14:06:05.240Z,25.35
2022-08-30T14:08:48.544Z,25.59
2022-08-30T14:11:21.178Z,25.65
2022-08-30T14:16:43.252Z,25.56
2022-08-30T14:19:12.671Z,25.48
2022-08-30T14:21:40.546Z,25.46
2022-08-30T14:24:08.253Z,25.28
2022-08-30T14:26:45.859Z,25.19
2022-08-30T14:29:18.464Z,24.91
2022-08-30T14:31:48.740Z,24.84
2022-08-30T14:34:17.676Z,24.54
2022-08-30T14:36:47.105Z,24.38
2022-08-30T14:39:19.118Z,24.20
2022-08-30T14:41:53.645Z,24.30
2022-08-30T14:44:25.134Z,24.19
2022-08-30T14:46:52.468Z,24.16
2022-08-30T14:49:21.484Z,24.12
2022-08-30T14:51:49.533Z,24.29
2022-08-30T14:54:20.206Z,24.23
2022-08-30T14:56:47.751Z,24.40
2022-08-30T14:59:16.431Z,24.48
2022-08-30T15:01:45.116Z,24.45
2022-08-30T15:04:14.946Z,24.38
2022-08-30T15:06:45.586Z,24.28
2022-08-30T15:09:18.682Z,24.13
2022-08-30T15:11:53.618Z,24.13
2022-08-30T15:14:24.089Z,23.84
2022-08-30T15:16:55.393Z,23.82
2022-08-30T15:19:23.066Z,23.68
2022-08-30T15:21:51.400Z,23.57
2022-08-30T15:24:27.653Z,23.57
2022-08-30T15:26:59.491Z,23.48
2022-08-30T15:29:27.990Z,23.45
2022-08-30T15:31:59.205Z,23.41
2022-08-30T15:34:28.332Z,23.43
2022-08-30T15:36:57.395Z,23.18
2022-08-30T15:39:25.004Z,23.10
2022-08-30T15:41:58.443Z,22.91
2022-08-30T15:44:27.869Z,22.90
2022-08-30T15:46:55.423Z,22.89
2022-08-30T15:49:24.791Z,22.78
2022-08-30T15:51:54.196Z,22.79
2022-08-30T15:54:23.985Z,22.63
2022-08-30T15:56:59.235Z,22.57
2022-08-30T15:59:31.956Z,22.53
2022-08-30T16:02:00.048Z,22.49
2022-08-30T16:04:27.624Z,22.48
2022-08-30T16:06:55.055Z,22.32
2022-08-30T16:09:23.527Z,22.27
2022-08-30T16:11:50.876Z,22.16
2022-08-30T16:14:18.360Z,22.05
2022-08-30T16:16:48.689Z,21.89
2022-08-30T16:19:16.034Z,21.55
2022-08-30T16:21:44.196Z,21.61
2022-08-30T16:24:13.757Z,21.52
2022-08-30T16:26:43.131Z,21.50
2022-08-30T16:29:12.546Z,21.38
2022-08-30T16:31:43.569Z,21.24
2022-08-30T16:34:16.261Z,21.13
2022-08-30T16:36:43.752Z,20.96
2022-08-30T16:39:13.499Z,20.78
2022-08-30T16:41:41.864Z,20.60
2022-08-30T16:44:09.929Z,20.55
2022-08-30T16:46:41.389Z,20.47
2022-08-30T16:49:10.456Z,20.32
2022-08-30T16:51:38.541Z,20.08
2022-08-30T16:54:08.205Z,19.91
2022-08-30T16:56:37.440Z,19.84
2022-08-30T16:59:10.902Z,19.79
2022-08-30T17:01:39.656Z,19.61
2022-08-30T17:04:08.404Z,19.40
2022-08-30T17:06:36.713Z,19.30
2022-08-30T17:09:06.506Z,19.19
2022-08-30T17:11:36.510Z,19.21
2022-08-30T17:14:04.753Z,19.14
2022-08-30T17:16:34.293Z,19.01
2022-08-30T17:19:01.882Z,18.96
2022-08-30T17:21:30.114Z,18.88
2022-08-30T17:24:01.850Z,18.80
2022-08-30T17:26:33.755Z,18.69
2022-08-30T17:29:01.480Z,18.55
2022-08-30T17:34:18.458Z,18.37
2022-08-30T17:36:46.213Z,18.27
2022-08-30T17:39:13.505Z,18.17
2022-08-30T17:41:50.546Z,18.12
2022-08-30T17:44:25.878Z,17.97
2022-08-30T17:47:11.811Z,17.98
2022-08-30T17:49:39.674Z,17.98
2022-08-30T17:52:07.114Z,17.95
2022-08-30T17:54:36.069Z,17.93
2022-08-30T17:57:11.308Z,17.89
2022-08-30T17:59:40.437Z,17.84
2022-08-30T18:02:11.255Z,17.82
2022-08-30T18:04:41.557Z,17.75
2022-08-30T18:07:11.880Z,17.74
2022-08-30T18:09:41.171Z,17.64
2022-08-30T18:12:10.526Z,17.59
2022-08-30T18:14:39.326Z,17.59
2022-08-30T18:17:08.192Z,17.55
2022-08-30T18:19:36.637Z,17.50
2022-08-30T18:22:16.129Z,17.44
2022-08-30T18:24:43.921Z,17.38
2022-08-30T18:27:11.371Z,17.37
2022-08-30T18:29:41.327Z,17.34
2022-08-30T18:34:56.049Z,17.17
2022-08-30T18:37:25.263Z,17.11
2022-08-30T18:39:52.774Z,17.07
2022-08-30T18:42:20.091Z,17.08
2022-08-30T18:44:48.145Z,17.10
2022-08-30T18:47:15.557Z,17.08
2022-08-30T18:49:43.972Z,17.01
2022-08-30T18:52:12.125Z,16.99
2022-08-30T18:54:52.769Z,16.96
2022-08-30T18:57:22.200Z,16.96
2022-08-30T18:59:50.228Z,17.01
2022-08-30T19:02:17.947Z,16.98
2022-08-30T19:04:47.231Z,16.93
2022-08-30T19:07:17.255Z,16.82
2022-08-30T19:09:46.877Z,16.70
2022-08-30T19:12:15.086Z,16.68
2022-08-30T19:14:43.456Z,16.77
2022-08-30T19:17:11.485Z,16.83
2022-08-30T19:19:46.354Z,16.81
2022-08-30T19:22:18.845Z,16.72
2022-08-30T19:24:47.496Z,16.63
2022-08-30T19:27:15.097Z,16.58
2022-08-30T19:29:42.917Z,16.56
2022-08-30T19:32:13.101Z,16.50
2022-08-30T19:34:40.759Z,16.39
2022-08-30T19:37:08.785Z,16.33
2022-08-30T19:39:43.283Z,16.24
2022-08-30T19:42:14.446Z,16.26
2022-08-30T19:44:41.811Z,16.33
2022-08-30T19:47:11.132Z,16.34
2022-08-30T19:49:38.669Z,16.28
2022-08-30T19:52:05.982Z,16.24
2022-08-30T19:54:33.496Z,16.14
2022-08-30T19:57:00.937Z,16.03
2022-08-30T19:59:28.449Z,16.07
2022-08-30T20:01:57.125Z,16.15
2022-08-30T20:04:24.475Z,16.15
2022-08-30T20:06:51.860Z,16.09
2022-08-30T20:09:22.196Z,16.07
2022-08-30T20:11:52.544Z,16.03
2022-08-30T20:14:23.006Z,16.00
2022-08-30T20:16:52.153Z,15.95
2022-08-30T20:19:21.837Z,15.94
2022-08-30T20:21:55.305Z,15.94
2022-08-30T20:24:23.739Z,18.43
2022-08-30T20:24:27.094Z,17.28
2022-08-30T20:24:31.674Z,15.91
2022-08-30T20:26:59.388Z,15.93
2022-08-30T20:29:26.809Z,15.93
2022-08-30T20:31:54.184Z,15.90
2022-08-30T20:34:27.340Z,15.95
2022-08-30T20:36:56.465Z,16.10
2022-08-30T20:39:24.349Z,16.22
2022-08-30T20:41:52.130Z,16.30
2022-08-30T20:44:19.498Z,16.23
2022-08-30T20:46:49.655Z,16.07
2022-08-30T20:49:19.730Z,15.93
2022-08-30T20:51:52.306Z,15.86
2022-08-30T20:54:20.418Z,15.80
2022-08-30T20:56:47.885Z,15.69
2022-08-30T20:59:15.208Z,15.59
2022-08-30T21:01:43.686Z,15.50
2022-08-30T21:04:11.043Z,15.48
2022-08-30T21:06:38.822Z,15.49
2022-08-30T21:09:08.683Z,15.50
2022-08-30T21:11:38.202Z,15.47
2022-08-30T21:14:12.648Z,15.43
2022-08-30T21:16:40.121Z,15.37
2022-08-30T21:19:07.499Z,15.25
2022-08-30T21:21:35.022Z,15.25
2022-08-30T21:24:09.511Z,15.21
2022-08-30T21:26:40.377Z,15.19
2022-08-30T21:29:08.162Z,15.16
2022-08-30T21:31:39.852Z,15.15
2022-08-30T21:34:08.031Z,15.08
2022-08-30T21:36:48.595Z,14.99
2022-08-30T21:39:28.412Z,14.91
2022-08-30T21:41:57.170Z,14.87
2022-08-30T21:44:27.239Z,14.85
2022-08-30T21:46:55.732Z,14.81
2022-08-30T21:49:24.976Z,14.79
2022-08-30T21:51:54.798Z,14.79
2022-08-30T21:54:24.276Z,14.75
2022-08-30T21:56:54.027Z,14.70
2022-08-30T21:59:21.997Z,14.76
2022-08-30T22:01:50.273Z,14.82
2022-08-30T22:04:19.426Z,14.77
2022-08-30T22:06:50.331Z,14.74
2022-08-30T22:09:24.972Z,14.65
2022-08-30T22:11:53.675Z,14.61
2022-08-30T22:14:22.108Z,14.60
2022-08-30T22:16:50.261Z,14.53
2022-08-30T22:19:22.900Z,14.53
2022-08-30T22:21:51.892Z,14.48
2022-08-30T22:24:21.805Z,14.45
2022-08-30T22:26:49.317Z,14.44
2022-08-30T22:29:17.397Z,14.39
2022-08-30T22:31:44.907Z,14.33
2022-08-30T22:34:12.658Z,14.30
2022-08-30T22:36:40.584Z,14.24
2022-08-30T22:39:09.812Z,14.26
2022-08-30T22:41:38.395Z,14.25
2022-08-30T22:44:06.448Z,14.17
2022-08-30T22:46:35.583Z,14.24
2022-08-30T22:49:06.868Z,14.22
2022-08-30T22:51:34.997Z,14.19
2022-08-30T22:54:05.006Z,14.24
2022-08-30T22:56:34.963Z,14.17
2022-08-30T22:59:03.366Z,14.07
2022-08-30T23:01:35.545Z,13.94
2022-08-30T23:04:05.851Z,13.86
2022-08-30T23:06:34.323Z,13.87
2022-08-30T23:09:02.411Z,13.85
2022-08-30T23:11:30.667Z,13.80
2022-08-30T23:14:02.166Z,13.76
2022-08-30T23:16:30.319Z,13.68
2022-08-30T23:18:57.850Z,13.71
2022-08-30T23:21:28.867Z,13.74
2022-08-30T23:24:16.396Z,13.75
2022-08-30T23:27:03.754Z,13.71
2022-08-30T23:29:50.851Z,13.65
2022-08-30T23:32:37.029Z,13.66
2022-08-30T23:35:29.043Z,13.59
2022-08-30T23:38:18.250Z,13.55
2022-08-30T23:41:04.280Z,13.59
2022-08-30T23:43:50.332Z,13.61
2022-08-30T23:46:36.168Z,13.58
2022-08-30T23:49:22.736Z,13.50
2022-08-30T23:52:08.747Z,13.57
2022-08-30T23:54:57.436Z,13.60
2022-08-30T23:57:44.918Z,13.58
